Airport ID:KJWN
Update Time (UTC):13/12/2019 21:38
Wind Speed (Knots):0
Wind Direction (Magnetic):20
Temperature (°C):8
Dew Point (°C):7
Humidity (%):96
Altimeter (inHg):29.84
Density Altitude (Feet):
Visibility (Miles):5
Clouds (Hundreds of feet):OVC008
Present Weather:BR
METAR:METAR KJWN 132155Z AUTO 00000KT 5SM BR OVC009 08/07 A2984 RMK A01 P0002

The data displayed is for advisory purposes only and is not to be used for flight planning or operations.

This page is not automatically refreshed. Reload the page to see current data.